M I D A S
Marine Information and Data Acquisition System
Tripno 1498 of the Zeeleeuw from 2008-06-03 06:19:20 to 2008-06-03 13:06:08
Back to CruiseResearch ActivitiesStationsMapUnderway DataData graphs

EquipmentUnitsComment
TimeDGPSUTC
LatitudeDGPSDM.mWGS84
LongitudeDGPSDM.mWGS84
HeadingGyrodeg 
SOGDGPSknotsSpeed over ground
COGDGPSdegCourse over ground
DepthEcho soundermeters200 kHz
Missing or incorrect values are displayed as -999
Navigation data collected by the RV Zeeleeuw from 2008-06-03 06:22:14 to 2008-06-03 13:07:22
Time Latitude Longitude Heading SOG COG Depth
2008-06-03 06:23:19 51°13.643 2°55.978 109.4 4 293 6.1
2008-06-03 06:24:20 51°13.656 2°55.925 112.4 2.4 293 7.8
2008-06-03 06:25:20 51°13.68 2°55.836 109.6 4 292 -999
2008-06-03 06:26:20 51°13.696 2°55.765 97.3 2 289 11.3
2008-06-03 06:27:20 51°13.705 2°55.753 55.3 0.6 286 -999
2008-06-03 06:28:20 51°13.72 2°55.733 359.1 3.8 342 11.1
2008-06-03 06:29:20 51°13.818 2°55.643 333.9 7.9 334 8.7
2008-06-03 06:30:20 51°13.945 2°55.549 337.8 8.7 335 9.1
2008-06-03 06:31:20 51°14.07 2°55.455 336.8 7.4 334 9
2008-06-03 06:32:19 51°14.181 2°55.356 330.6 8.6 326 9
2008-06-03 06:33:20 51°14.294 2°55.198 316.7 9 312 8.8
2008-06-03 06:34:19 51°14.399 2°54.993 310.8 11.3 306 9
2008-06-03 06:35:20 51°14.542 2°54.76 329.4 12.3 324 8.7
2008-06-03 06:36:20 51°14.71 2°54.572 336 12.3 326 8.4
2008-06-03 06:37:20 51°14.876 2°54.387 335 12 325 8.2
2008-06-03 06:38:20 51°15.035 2°54.199 334.9 11.9 322 7.3
2008-06-03 06:39:20 51°15.19 2°54.001 333.6 11.8 325 7.9
2008-06-03 06:40:20 51°15.356 2°53.833 339.8 11.8 329 8.3
2008-06-03 06:41:19 51°15.521 2°53.67 340.1 11.8 328 8.9
2008-06-03 06:42:20 51°15.693 2°53.505 340.3 11.9 329 9.7
2008-06-03 06:43:20 51°15.866 2°53.354 344.4 11.9 333 10
2008-06-03 06:44:20 51°16.042 2°53.212 345.1 11.8 334 10.3
2008-06-03 06:45:20 51°16.219 2°53.078 345.5 11.8 335 10.4
2008-06-03 06:46:20 51°16.397 2°52.946 341.8 11.8 333 10.5
2008-06-03 06:47:20 51°16.579 2°52.833 347.7 11.7 341 10.4
2008-06-03 06:48:20 51°16.759 2°52.726 347.3 11.4 338 8.9
2008-06-03 06:49:20 51°16.931 2°52.601 343.6 11.3 336 8.5
2008-06-03 06:50:20 51°17.102 2°52.479 343.5 11.3 335 8.6
2008-06-03 06:51:20 51°17.28 2°52.394 355.2 11 352 8.9
2008-06-03 06:52:20 51°17.462 2°52.371 2.6 10.9 356 9.3
2008-06-03 06:53:20 51°17.644 2°52.354 2.5 10.9 356 9.3
2008-06-03 06:54:20 51°17.824 2°52.356 11.2 10.7 11 9.2
2008-06-03 06:55:20 51°17.989 2°52.457 31.1 10.6 30 9.4
2008-06-03 06:56:20 51°18.129 2°52.634 39.6 10.6 40 9.7
2008-06-03 06:57:19 51°18.238 2°52.854 54 10.8 56 9.7
2008-06-03 06:58:20 51°18.334 2°53.101 54.6 10.7 57 9.8
2008-06-03 06:59:20 51°18.43 2°53.342 56.2 10.8 60 10
2008-06-03 07:00:20 51°18.521 2°53.592 56.9 10.9 58 10.1
2008-06-03 07:01:20 51°18.611 2°53.84 56.2 10.8 60 10.2
2008-06-03 07:02:20 51°18.694 2°54.095 60.2 10.9 63 10.1
2008-06-03 07:03:20 51°18.777 2°54.352 59.2 10.8 64 10.2
2008-06-03 07:04:20 51°18.861 2°54.608 59.2 10.9 63 10.4
2008-06-03 07:05:20 51°18.946 2°54.865 58.3 10.9 62 10
2008-06-03 07:06:20 51°19.035 2°55.118 58.2 11 61 9.9
2008-06-03 07:07:20 51°19.123 2°55.376 57 11.1 60 10.2
2008-06-03 07:08:20 51°19.209 2°55.636 57.2 11 62 10.2
2008-06-03 07:09:20 51°19.295 2°55.895 58.2 11 63 10
2008-06-03 07:10:20 51°19.377 2°56.156 58.9 11 64 10
2008-06-03 07:11:20 51°19.443 2°56.43 66.5 11.1 73 9.9
2008-06-03 07:12:20 51°19.5 2°56.71 66.4 11.1 70 9.9
2008-06-03 07:13:19 51°19.569 2°56.975 62.4 11 67 9.9
2008-06-03 07:14:20 51°19.634 2°57.252 66.9 11 71 9.7
2008-06-03 07:15:20 51°19.686 2°57.535 71 11.1 75 9.7
2008-06-03 07:16:20 51°19.742 2°57.815 66.3 11 72 9.6
2008-06-03 07:17:20 51°19.8 2°58.092 66.1 11 71 9.5
2008-06-03 07:18:20 51°19.855 2°58.367 67 10.9 72 9.3
2008-06-03 07:19:20 51°19.91 2°58.64 67 10.9 72 9.2
2008-06-03 07:20:20 51°19.955 2°58.919 70.2 10.8 76 8.9
2008-06-03 07:21:20 51°20.005 2°59.196 67.5 10.9 71 8.8
2008-06-03 07:22:20 51°20.063 2°59.47 67.2 10.8 72 8.8
2008-06-03 07:23:20 51°20.131 2°59.737 61.7 10.9 67 9
2008-06-03 07:24:20 51°20.204 2°59.999 63.4 10.8 67 9
2008-06-03 07:25:20 51°20.268 3°0.264 66 10.7 70 8.8
2008-06-03 07:26:20 51°20.329 3°0.533 67.3 10.8 69 9
2008-06-03 07:27:20 51°20.386 3°0.801 66 10.6 73 9
2008-06-03 07:28:20 51°20.443 3°1.071 67.1 10.8 72 9
2008-06-03 07:29:20 51°20.493 3°1.346 69.9 10.8 76 8.9
2008-06-03 07:30:20 51°20.54 3°1.627 69.8 11 75 8.7
2008-06-03 07:31:20 51°20.593 3°1.904 67.1 10.8 71 8.7
2008-06-03 07:32:20 51°20.654 3°2.173 67.3 10.9 72 8.7
2008-06-03 07:33:20 51°20.717 3°2.443 63.2 10.8 67 8.8
2008-06-03 07:34:20 51°20.786 3°2.71 62.4 10.9 66 8.8
2008-06-03 07:35:20 51°20.858 3°2.975 63.4 10.8 67 9
2008-06-03 07:36:20 51°20.927 3°3.238 64.3 10.6 67 9
2008-06-03 07:37:20 51°20.995 3°3.501 64.7 10.8 67 9.1
2008-06-03 07:38:20 51°21.061 3°3.766 66.9 10.7 68 9.2
2008-06-03 07:39:20 51°21.13 3°4.027 64 10.6 67 9.3
2008-06-03 07:40:20 51°21.196 3°4.289 67.7 10.8 70 9.3
2008-06-03 07:41:20 51°21.262 3°4.556 64.4 10.8 67 9.6
2008-06-03 07:42:20 51°21.334 3°4.818 64.3 10.8 68 9.5
2008-06-03 07:43:20 51°21.408 3°5.082 65.2 10.9 65 9.6
2008-06-03 07:44:20 51°21.472 3°5.355 67.6 11 70 9.7
2008-06-03 07:45:20 51°21.538 3°5.631 67.3 11.1 68 9.7
2008-06-03 07:46:20 51°21.609 3°5.9 66.2 10.9 67 9.9
2008-06-03 07:47:20 51°21.68 3°6.166 66.6 10.9 67 10.2
2008-06-03 07:48:20 51°21.753 3°6.432 65.8 10.9 66 10.4
2008-06-03 07:49:20 51°21.824 3°6.701 68.4 10.9 70 10.6
2008-06-03 07:50:20 51°21.879 3°6.98 74.8 11.1 74 10.7
2008-06-03 07:51:20 51°21.917 3°7.267 78.3 11.1 79 10.8
2008-06-03 07:52:20 51°21.95 3°7.559 78.4 11.1 79 10.9
2008-06-03 07:53:20 51°21.972 3°7.853 82 11.1 85 10.8
2008-06-03 07:54:20 51°21.992 3°8.146 82.6 10.5 84 11
2008-06-03 07:55:20 51°22.004 3°8.402 83.7 9.4 86 11.1
2008-06-03 07:56:20 51°22.013 3°8.651 85.3 9.4 87 11.2
2008-06-03 07:57:20 51°22.022 3°8.925 85.7 11 88 11.4
2008-06-03 07:58:20 51°22.032 3°9.225 84.1 11.4 83 11.7
2008-06-03 07:59:20 51°22.069 3°9.521 78.1 11.4 77 12.1
2008-06-03 08:00:20 51°22.108 3°9.818 79.9 11.5 82 12.7
2008-06-03 08:01:20 51°22.145 3°10.119 78.3 11.6 78 13.4
2008-06-03 08:02:20 51°22.184 3°10.422 78.7 11.7 80 14
2008-06-03 08:03:20 51°22.216 3°10.734 81.4 12.1 79 17.6
2008-06-03 08:04:20 51°22.258 3°11.049 78 12 77 16.1
2008-06-03 08:05:20 51°22.309 3°11.359 77.5 12 75 15.3
2008-06-03 08:06:20 51°22.368 3°11.663 74.8 11.9 74 15
2008-06-03 08:07:20 51°22.407 3°11.976 81.9 12 80 13.7
2008-06-03 08:08:20 51°22.462 3°12.28 73.9 11.9 72 13.9
2008-06-03 08:09:20 51°22.512 3°12.581 78.7 11.7 78 13
2008-06-03 08:10:20 51°22.557 3°12.881 78.6 11.6 75 12.2
2008-06-03 08:11:20 51°22.599 3°13.103 70.4 6 64 11.7
2008-06-03 08:12:20 51°22.636 3°13.189 57.7 2.6 46 11.4
2008-06-03 08:13:20 51°22.647 3°13.197 29.6 0.3 347 11.4
2008-06-03 08:14:20 51°22.653 3°13.192 13.4 0.4 329 11.4
2008-06-03 08:15:20 51°22.659 3°13.183 3.3 0.5 316 11.4
2008-06-03 08:16:20 51°22.656 3°13.176 357.5 0.9 196 11.4
2008-06-03 08:17:20 51°22.638 3°13.169 3.7 1 192 11.5
2008-06-03 08:18:20 51°22.625 3°13.159 7.7 0.7 208 11.6
2008-06-03 08:19:20 51°22.616 3°13.157 14.3 0.4 200 11.6
2008-06-03 08:20:20 51°22.61 3°13.151 20.2 0.3 222 11.7
2008-06-03 08:21:20 51°22.608 3°13.142 24.6 0.2 251 11.7
2008-06-03 08:22:20 51°22.609 3°13.139 26 0.2 295 11.7
2008-06-03 08:23:20 51°22.612 3°13.136 25.3 0.2 335 11.8
2008-06-03 08:24:20 51°22.616 3°13.134 24.7 0.3 350 11.7
2008-06-03 08:25:20 51°22.623 3°13.132 21.4 0.4 351 11.7
2008-06-03 08:26:20 51°22.628 3°13.129 17.8 0.4 334 11.7
2008-06-03 08:27:20 51°22.633 3°13.131 13.5 0.4 341 11.6
2008-06-03 08:28:20 51°22.642 3°13.124 5.2 0.5 333 11.7
2008-06-03 08:29:20 51°22.649 3°13.115 353.1 0.6 318 11.7
2008-06-03 08:30:20 51°22.656 3°13.103 347 0.6 314 11.6
2008-06-03 08:31:20 51°22.675 3°13.094 2.8 2.5 2 11.6
2008-06-03 08:32:20 51°22.703 3°13.162 83.6 4.1 89 11.5
2008-06-03 08:33:20 51°22.679 3°13.284 118.7 4.6 128 11.3
2008-06-03 08:34:20 51°22.626 3°13.328 158.9 2.7 167 11.4
2008-06-03 08:35:17 51°22.612 3°13.326 181.3 0.4 239 11.4
2008-06-03 08:36:16 51°22.608 3°13.321 175.8 0.3 232 11.5
2008-06-03 08:37:16 51°22.605 3°13.317 163.8 0.4 203 11.5
2008-06-03 08:38:16 51°22.6 3°13.314 150.4 0.3 199 11.5
2008-06-03 08:39:17 51°22.595 3°13.314 140.7 0.3 178 11.5
2008-06-03 08:40:16 51°22.588 3°13.32 142.5 0.7 155 11.6
2008-06-03 08:41:16 51°22.551 3°13.323 191.6 3.2 198 11.6
2008-06-03 08:42:16 51°22.52 3°13.253 261.4 3.5 265 11.8
2008-06-03 08:43:16 51°22.542 3°13.173 312.3 2.8 310 12
2008-06-03 08:44:16 51°22.56 3°13.142 337.4 0.5 303 12
2008-06-03 08:45:16 51°22.565 3°13.134 348.2 0.3 321 12
2008-06-03 08:46:16 51°22.57 3°13.129 347.1 0.3 333 12.1
2008-06-03 08:47:16 51°22.574 3°13.125 340.5 0.2 322 12
2008-06-03 08:48:16 51°22.577 3°13.121 334.5 0.2 309 12
2008-06-03 08:49:16 51°22.579 3°13.119 334.6 0.1 357 12
2008-06-03 08:50:16 51°22.581 3°13.117 337 0.1 346 12.1
2008-06-03 08:51:16 51°22.586 3°13.116 336.7 0.8 335 12.1
2008-06-03 08:52:16 51°22.601 3°13.052 268.3 4 265 12.2
2008-06-03 08:53:16 51°22.573 3°12.854 257.2 10.7 259 12.5
2008-06-03 08:54:16 51°22.538 3°12.557 258.4 11.6 259 13.3
2008-06-03 08:55:17 51°22.503 3°12.248 259.1 11.6 260 14.1
2008-06-03 08:56:16 51°22.47 3°11.949 259.5 11.6 261 14.7
2008-06-03 08:57:16 51°22.459 3°11.686 268.5 7.7 270 15.2
2008-06-03 08:58:16 51°22.458 3°11.514 267.1 5.8 269 15.4
2008-06-03 08:59:16 51°22.475 3°11.38 294.2 4.5 295 15.4
2008-06-03 09:00:17 51°22.502 3°11.314 319.3 1 312 15.5
2008-06-03 09:01:16 51°22.503 3°11.312 352.6 0.1 13 4.8
2008-06-03 09:02:16 51°22.506 3°11.313 7.1 0.2 41 15.4
2008-06-03 09:03:16 51°22.509 3°11.316 13.3 0.3 39 15.5
2008-06-03 09:04:16 51°22.514 3°11.322 15.8 0.6 23 15.5
2008-06-03 09:05:16 51°22.549 3°11.297 312 3.9 308 15.4
2008-06-03 09:06:16 51°22.531 3°11.181 230.4 6.8 232 15.5
2008-06-03 09:07:16 51°22.431 3°10.958 234.3 11.9 235 15.5
2008-06-03 09:08:16 51°22.316 3°10.693 235.4 12.2 235 18.7
2008-06-03 09:09:16 51°22.194 3°10.436 232.6 12.2 234 15
2008-06-03 09:10:16 51°22.085 3°10.165 237.5 12.1 237 14.3
2008-06-03 09:11:16 51°21.978 3°9.893 240.1 12.1 238 13.5
2008-06-03 09:12:16 51°21.869 3°9.623 236.6 12.1 236 12.5
2008-06-03 09:13:16 51°21.761 3°9.351 240.9 12.1 240 11.6
2008-06-03 09:14:16 51°21.654 3°9.078 236.6 12.1 236 10.8
2008-06-03 09:15:16 51°21.537 3°8.813 236.4 12.2 234 10.1
2008-06-03 09:16:16 51°21.421 3°8.549 235.8 12.2 234 9.4
2008-06-03 09:17:16 51°21.305 3°8.285 236.5 12.2 235 9.1
2008-06-03 09:18:16 51°21.187 3°8.021 235.9 12.1 235 8.5
2008-06-03 09:19:16 51°21.07 3°7.759 235.3 12.1 235 8.1
2008-06-03 09:20:16 51°20.951 3°7.497 234.5 12.2 232 8
2008-06-03 09:21:16 51°20.818 3°7.251 230.2 12.2 230 8
2008-06-03 09:22:16 51°20.687 3°7.005 230.2 12.2 230 7.9
2008-06-03 09:23:16 51°20.554 3°6.759 230.8 12.2 230 7.9
2008-06-03 09:24:16 51°20.422 3°6.513 229.7 12.1 229 8.1
2008-06-03 09:25:17 51°20.284 3°6.273 226.5 12 227 8.1
2008-06-03 09:26:16 51°20.161 3°6.027 234.2 12 235 8.3
2008-06-03 09:27:16 51°20.052 3°5.758 237.2 12 238 8.4
2008-06-03 09:28:16 51°19.945 3°5.49 237.4 12 237 8.5
2008-06-03 09:29:16 51°19.84 3°5.22 237.8 11.9 238 8.5
2008-06-03 09:30:16 51°19.736 3°4.95 238.1 12 239 8.5
2008-06-03 09:31:16 51°19.634 3°4.678 238 11.9 239 8.7
2008-06-03 09:32:17 51°19.528 3°4.405 237.7 11.9 239 8.8
2008-06-03 09:33:16 51°19.427 3°4.139 238 11.9 239 9.1
2008-06-03 09:34:16 51°19.324 3°3.87 238.1 11.9 239 9
2008-06-03 09:35:16 51°19.221 3°3.6 238.1 11.8 240 9
2008-06-03 09:36:16 51°19.119 3°3.333 238.7 11.8 238 8.9
2008-06-03 09:37:16 51°19.019 3°3.065 238.7 11.8 238 8.9
2008-06-03 09:38:16 51°18.918 3°2.798 238.2 11.7 239 8.7
2008-06-03 09:39:16 51°18.817 3°2.532 238.3 11.7 239 8.7
2008-06-03 09:40:16 51°18.716 3°2.265 238 11.7 239 8.8
2008-06-03 09:41:16 51°18.617 3°1.997 241.1 11.8 242 8.8
2008-06-03 09:42:16 51°18.525 3°1.721 241.7 11.8 242 8.8
2008-06-03 09:43:17 51°18.428 3°1.443 240.5 11.8 240 8.8
2008-06-03 09:44:16 51°18.331 3°1.177 239.9 11.8 241 8.8
2008-06-03 09:45:16 51°18.232 3°0.908 239.4 11.7 239 8.8
2008-06-03 09:46:16 51°18.131 3°0.641 239.1 11.7 238 8.9
2008-06-03 09:47:16 51°18.029 3°0.377 238.7 11.6 238 8.9
2008-06-03 09:48:17 51°17.925 3°0.111 238.2 11.6 238 9
2008-06-03 09:49:16 51°17.825 2°59.855 238.4 11.6 238 8.9
2008-06-03 09:50:16 51°17.723 2°59.594 238.7 11.6 237 9.3
2008-06-03 09:51:16 51°17.622 2°59.334 238.2 11.5 238 9.4
2008-06-03 09:52:16 51°17.521 2°59.077 238 11.3 238 9.5
2008-06-03 09:53:16 51°17.421 2°58.825 238.2 11.3 237 9.7
2008-06-03 09:54:17 51°17.331 2°58.558 245.6 11.2 245 10.1
2008-06-03 09:55:16 51°17.259 2°58.291 246.9 11.1 247 10.1
2008-06-03 09:56:16 51°17.186 2°58.022 246.7 11.1 246 10.1
2008-06-03 09:57:17 51°17.112 2°57.75 246.7 11 247 10.2
2008-06-03 09:58:16 51°17.056 2°57.483 260.6 10.9 261 10.6
2008-06-03 09:59:17 51°17.029 2°57.189 260.6 11.1 262 11
2008-06-03 10:00:16 51°16.96 2°56.927 240.1 11 239 11.4
2008-06-03 10:01:16 51°16.866 2°56.678 240.2 11 241 11.8
2008-06-03 10:02:16 51°16.79 2°56.415 248.1 10.9 250 11.7
2008-06-03 10:03:16 51°16.73 2°56.142 250.2 10.9 251 11.9
2008-06-03 10:04:17 51°16.666 2°55.868 246.5 10.8 247 12.1
2008-06-03 10:05:16 51°16.597 2°55.608 247.1 10.8 247 12.2
2008-06-03 10:06:16 51°16.522 2°55.349 243 10.7 243 12.5
2008-06-03 10:07:16 51°16.445 2°55.095 244.7 10.6 246 12.7
2008-06-03 10:08:17 51°16.371 2°54.835 245.8 10.7 248 12.8
2008-06-03 10:09:16 51°16.312 2°54.578 248.1 8.9 250 13.2
2008-06-03 10:10:16 51°16.293 2°54.452 259.7 2.8 268 13.5
2008-06-03 10:11:16 51°16.289 2°54.404 237.6 1.3 232 13.6
2008-06-03 10:12:16 51°16.269 2°54.382 230.7 2 224 13.6
2008-06-03 10:13:16 51°16.26 2°54.329 254 2.1 258 13.6
2008-06-03 10:14:16 51°16.249 2°54.294 250.2 0.4 272 13.6
2008-06-03 10:15:16 51°16.258 2°54.297 276.4 0.9 27 13.7
2008-06-03 10:16:16 51°16.273 2°54.314 285.1 1.2 41 13.6
2008-06-03 10:17:16 51°16.288 2°54.339 289.9 1.4 48 13.7
2008-06-03 10:18:16 51°16.305 2°54.371 295.7 1.7 52 13.7
2008-06-03 10:19:16 51°16.322 2°54.409 301.4 1.9 55 13.8
2008-06-03 10:20:16 51°16.339 2°54.453 306.3 2 59 13.7
2008-06-03 10:21:17 51°16.356 2°54.501 316.3 2.1 62 13.9
2008-06-03 10:22:16 51°16.371 2°54.551 329.3 2.2 64 13.9
2008-06-03 10:23:16 51°16.387 2°54.604 344.4 2.2 65 13.8
2008-06-03 10:24:16 51°16.402 2°54.658 359.4 2.3 66 13.8
2008-06-03 10:25:16 51°16.417 2°54.712 12.1 2.3 65 13.7
2008-06-03 10:26:16 51°16.452 2°54.763 346.7 3.7 16 13.7
2008-06-03 10:27:16 51°16.483 2°54.715 246.5 2 248 14
2008-06-03 10:28:16 51°16.455 2°54.683 224.9 2.3 209 14
2008-06-03 10:29:17 51°16.423 2°54.642 235.1 2.5 228 13.8
2008-06-03 10:30:17 51°16.399 2°54.585 238.8 2.7 235 13.9
2008-06-03 10:31:17 51°16.35 2°54.476 235.9 5.3 234 13.9
2008-06-03 10:32:16 51°16.296 2°54.383 228.9 4.7 224 13.9
2008-06-03 10:33:17 51°16.257 2°54.323 239.3 1.7 234 14
2008-06-03 10:34:16 51°16.253 2°54.309 252.3 0.3 12 14
2008-06-03 10:35:16 51°16.26 2°54.32 247.1 0.7 62 14
2008-06-03 10:36:16 51°16.261 2°54.34 231 0.8 101 14.1
2008-06-03 10:37:17 51°16.257 2°54.355 236.5 0.4 133 14
2008-06-03 10:38:17 51°16.255 2°54.358 248.7 0.1 35 14
2008-06-03 10:39:16 51°16.26 2°54.356 256.6 0.4 334 14
2008-06-03 10:40:16 51°16.267 2°54.348 258.7 0.6 329 14.1
2008-06-03 10:41:16 51°16.275 2°54.341 256.1 0.5 326 14.1
2008-06-03 10:42:16 51°16.28 2°54.334 249.5 0.3 305 14.1
2008-06-03 10:43:16 51°16.278 2°54.331 241.3 0.2 180 14
2008-06-03 10:44:17 51°16.275 2°54.333 239.4 0.2 167 14.1
2008-06-03 10:45:17 51°16.272 2°54.334 243.4 0.1 123 14.1
2008-06-03 10:46:17 51°16.273 2°54.337 244.8 0.1 60 14.1
2008-06-03 10:47:17 51°16.274 2°54.341 244.7 0.2 54 14.1
2008-06-03 10:48:16 51°16.275 2°54.346 243.9 0.2 58 14.1
2008-06-03 10:49:17 51°16.275 2°54.347 243.3 0.1 222 14.1
2008-06-03 10:50:16 51°16.272 2°54.339 243.5 0.5 238 14.1
2008-06-03 10:51:16 51°16.267 2°54.332 240.9 0.3 139 14.2
2008-06-03 10:52:17 51°16.266 2°54.339 242.3 0.3 88 14.1
2008-06-03 10:53:16 51°16.269 2°54.354 243.3 0.6 81 14.1
2008-06-03 10:54:16 51°16.27 2°54.369 242.9 0.6 84 14.2
2008-06-03 10:55:16 51°16.273 2°54.391 241.7 1.2 72 14.1
2008-06-03 10:56:16 51°16.28 2°54.429 237.8 1.7 73 14.1
2008-06-03 10:57:16 51°16.284 2°54.469 225.4 1 145 14.2
2008-06-03 10:58:16 51°16.235 2°54.457 226.1 4.8 227 14.3
2008-06-03 10:59:16 51°16.185 2°54.293 243.6 8.6 244 14.1
2008-06-03 11:00:16 51°16.116 2°54.063 243.5 10.1 245 14.1
2008-06-03 11:01:16 51°16.044 2°53.819 244.1 10.2 244 14.1
2008-06-03 11:02:16 51°15.971 2°53.575 245 10.2 245 14.2
2008-06-03 11:03:16 51°15.907 2°53.324 245.9 10.2 248 14.3
2008-06-03 11:04:16 51°15.831 2°53.082 239.4 10.3 237 14.4
2008-06-03 11:05:16 51°15.741 2°52.852 238.7 10.3 238 14.5
2008-06-03 11:06:16 51°15.65 2°52.623 238.6 10.2 237 14.5
2008-06-03 11:07:16 51°15.561 2°52.394 239 10.1 238 14.6
2008-06-03 11:08:16 51°15.47 2°52.168 236.9 10.1 235 14.8
2008-06-03 11:09:16 51°15.376 2°51.946 238.8 10.2 238 14.8
2008-06-03 11:10:16 51°15.283 2°51.72 236.1 10.2 233 15
2008-06-03 11:11:16 51°15.192 2°51.492 240 10.3 239 15
2008-06-03 11:12:16 51°15.104 2°51.257 238.9 10.4 241 15
2008-06-03 11:13:16 51°15.014 2°51.022 238.9 10.4 239 15.1
2008-06-03 11:14:16 51°14.922 2°50.787 238.5 10.5 237 15.1
2008-06-03 11:15:16 51°14.826 2°50.554 238.5 10.5 240 14.9
2008-06-03 11:16:16 51°14.735 2°50.313 239.2 10.6 239 14.9
2008-06-03 11:17:16 51°14.641 2°50.076 235.8 10.5 237 15
2008-06-03 11:18:16 51°14.544 2°49.842 237.2 10.6 237 14.8
2008-06-03 11:19:16 51°14.448 2°49.606 237.6 10.6 238 14.7
2008-06-03 11:20:16 51°14.361 2°49.361 238.2 10.6 239 14.7
2008-06-03 11:21:16 51°14.266 2°49.125 237 10.7 238 14.5
2008-06-03 11:22:16 51°14.17 2°48.884 237.1 10.8 237 14.5
2008-06-03 11:23:16 51°14.077 2°48.644 237.2 10.6 239 14.3
2008-06-03 11:24:16 51°13.984 2°48.403 238.1 10.7 239 14.5
2008-06-03 11:25:16 51°13.891 2°48.163 238 10.6 238 14.5
2008-06-03 11:26:16 51°13.799 2°47.921 238.1 10.7 240 14.4
2008-06-03 11:27:16 51°13.713 2°47.669 240.4 10.9 241 14.2
2008-06-03 11:28:16 51°13.619 2°47.425 238.2 10.8 239 14.3
2008-06-03 11:29:16 51°13.533 2°47.172 239.6 10.8 240 14.2
2008-06-03 11:30:16 51°13.442 2°46.925 237.5 10.8 239 14.2
2008-06-03 11:31:16 51°13.346 2°46.683 237 10.8 237 14
2008-06-03 11:32:16 51°13.243 2°46.449 233.9 10.8 234 14.1
2008-06-03 11:33:16 51°13.137 2°46.216 235.1 10.9 236 13.8
2008-06-03 11:34:16 51°13.041 2°45.971 237.8 10.9 239 12.4
2008-06-03 11:35:16 51°12.944 2°45.725 236.8 10.9 236 11.9
2008-06-03 11:36:16 51°12.841 2°45.491 236.7 10.8 238 11.5
2008-06-03 11:37:16 51°12.748 2°45.244 240.1 10.8 240 11.6
2008-06-03 11:38:16 51°12.657 2°44.996 236.3 10.8 237 12
2008-06-03 11:39:16 51°12.563 2°44.751 241 10.9 243 12.6
2008-06-03 11:40:16 51°12.491 2°44.484 246.7 11 248 13.3
2008-06-03 11:41:16 51°12.422 2°44.215 246 10.9 248 12.2
2008-06-03 11:42:16 51°12.344 2°43.961 239.4 10.7 239 14
2008-06-03 11:43:16 51°12.251 2°43.722 237.4 10.6 237 13.8
2008-06-03 11:44:16 51°12.175 2°43.468 250.2 10.7 256 13.4
2008-06-03 11:45:16 51°12.151 2°43.185 260.7 10.8 265 13.7
2008-06-03 11:46:16 51°12.112 2°42.91 249 10.6 252 14.4
2008-06-03 11:47:16 51°12.015 2°42.682 227.1 10.5 225 14.5
2008-06-03 11:48:16 51°11.885 2°42.493 224.5 10.7 223 14.3
2008-06-03 11:49:16 51°11.755 2°42.303 224.5 10.6 224 13.8
2008-06-03 11:50:16 51°11.626 2°42.107 225.2 10.8 225 13.3
2008-06-03 11:51:16 51°11.503 2°41.898 228.1 10.8 228 13.7
2008-06-03 11:52:16 51°11.379 2°41.693 227.3 10.7 227 14.6
2008-06-03 11:53:16 51°11.25 2°41.491 223.2 10.9 220 14.8
2008-06-03 11:54:16 51°11.111 2°41.308 221 10.9 220 15.3
2008-06-03 11:55:16 51°10.972 2°41.122 222 11 220 15.4
2008-06-03 11:56:16 51°10.836 2°40.931 225.1 10.9 224 15.5
2008-06-03 11:57:16 51°10.699 2°40.741 219.3 10.9 219 15.8
2008-06-03 11:58:16 51°10.552 2°40.568 219 10.9 218 15.8
2008-06-03 11:59:16 51°10.41 2°40.384 221.8 11.1 219 15.5
2008-06-03 12:00:16 51°10.27 2°40.201 222 10.4 219 15.3
2008-06-03 12:01:16 51°10.186 2°40.087 231.4 3.7 226 15.1
2008-06-03 12:02:16 51°10.146 2°40.055 210.6 2.5 190 14.8
2008-06-03 12:03:16 51°10.107 2°40.045 213.9 2.2 185 14.5
2008-06-03 12:04:16 51°10.083 2°40.058 203 1.4 133 14.4
2008-06-03 12:05:16 51°10.069 2°40.093 191.6 1.7 114 14.3
2008-06-03 12:06:16 51°10.061 2°40.134 189.8 1.6 103 14.1
2008-06-03 12:07:16 51°10.057 2°40.176 192.6 1.6 95 14
2008-06-03 12:08:16 51°10.055 2°40.217 193.3 1.5 108 14
2008-06-03 12:09:16 51°10.029 2°40.208 246.7 2.3 253 13.7
2008-06-03 12:10:16 51°10.068 2°40.162 335.8 4.5 1 14.1
2008-06-03 12:11:16 51°10.159 2°40.248 27.2 9.2 33 14.5
2008-06-03 12:12:16 51°10.317 2°40.429 36.3 13.2 38 15
2008-06-03 12:13:16 51°10.482 2°40.68 46 13.9 48 15.4
2008-06-03 12:14:16 51°10.633 2°40.953 48.5 13.9 50 15.4
2008-06-03 12:15:16 51°10.78 2°41.235 50 13.8 51 15.3
2008-06-03 12:16:16 51°10.926 2°41.518 51.6 13.8 51 15.1
2008-06-03 12:17:16 51°11.072 2°41.8 49.4 13.7 50 14.9
2008-06-03 12:18:16 51°11.203 2°42.097 58.9 13.8 58 14.7
2008-06-03 12:19:16 51°11.325 2°42.406 60.8 13.7 60 14.5
2008-06-03 12:20:16 51°11.414 2°42.739 74.3 13.6 74 14.2
2008-06-03 12:21:16 51°11.466 2°43.092 80.2 13.6 77 14.1
2008-06-03 12:22:16 51°11.526 2°43.441 74.7 13.7 72 14.5
2008-06-03 12:23:16 51°11.586 2°43.788 77.7 13.6 76 14.7
2008-06-03 12:24:16 51°11.641 2°44.138 78.3 13.5 77 14.7
2008-06-03 12:25:16 51°11.694 2°44.488 79.6 13.7 78 15
2008-06-03 12:26:16 51°11.74 2°44.843 82.6 13.7 80 15.3
2008-06-03 12:27:16 51°11.783 2°45.2 79.7 13.7 77 15.4
2008-06-03 12:28:16 51°11.84 2°45.552 76.6 13.7 74 15.6
2008-06-03 12:29:16 51°11.895 2°45.902 79.3 13.6 77 15.7
2008-06-03 12:30:16 51°11.942 2°46.256 82.7 13.7 79 15.7
2008-06-03 12:31:16 51°11.993 2°46.611 79.7 13.8 77 15.6
2008-06-03 12:32:16 51°12.042 2°46.969 82.9 13.8 80 15.5
2008-06-03 12:33:16 51°12.088 2°47.328 80.9 13.8 77 15.3
2008-06-03 12:34:16 51°12.171 2°47.669 64.2 13.9 62 15.1
2008-06-03 12:35:16 51°12.283 2°47.993 63.1 14 62 15.2
2008-06-03 12:36:16 51°12.393 2°48.321 62.7 14 61 15
2008-06-03 12:37:16 51°12.495 2°48.655 66.4 14 65 14.8
2008-06-03 12:38:16 51°12.598 2°48.985 62.2 13.9 60 14.6
2008-06-03 12:39:16 51°12.715 2°49.302 60.6 13.9 60 14.5
2008-06-03 12:40:16 51°12.827 2°49.623 64.3 13.8 63 14.3
2008-06-03 12:41:16 51°12.93 2°49.95 64.1 13.8 64 14.3
2008-06-03 12:42:16 51°13.037 2°50.276 63.5 14.1 62 14
2008-06-03 12:43:16 51°13.148 2°50.606 63.7 14.2 61 13.9
2008-06-03 12:44:16 51°13.255 2°50.917 60.8 12.5 60 13.8
2008-06-03 12:45:16 51°13.335 2°51.145 59.7 7.7 58 13.8
2008-06-03 12:46:16 51°13.397 2°51.282 50.6 5.6 53 13.8
2008-06-03 12:47:16 51°13.444 2°51.395 58.3 4.6 58 13.7
2008-06-03 12:48:16 51°13.476 2°51.471 38.8 2.2 56 13.7
2008-06-03 12:49:16 51°13.489 2°51.514 29.1 1.8 64 13.7
2008-06-03 12:50:16 51°13.503 2°51.558 28.5 1.9 65 13.7
2008-06-03 12:51:16 51°13.516 2°51.603 24.1 1.9 65 13.6
2008-06-03 12:52:16 51°13.529 2°51.648 18.2 1.9 65 13.6
2008-06-03 12:53:16 51°13.55 2°51.699 28.7 3.6 45 13.5
2008-06-03 12:54:16 51°13.625 2°51.873 56.2 11.9 56 13.5
2008-06-03 12:55:16 51°13.747 2°52.17 55.3 13.7 55 13.2
2008-06-03 12:56:16 51°13.879 2°52.469 55.2 13.9 55 13.2
2008-06-03 12:57:16 51°14.01 2°52.772 55.5 13.8 55 13.1
2008-06-03 12:58:16 51°14.117 2°53.054 67.2 9.4 66 13
2008-06-03 12:59:16 51°14.16 2°53.242 76.8 6.8 70 12.7
2008-06-03 13:00:16 51°14.204 2°53.411 72.2 6.9 67 12.5
2008-06-03 13:01:16 51°14.247 2°53.582 73.8 7.2 69 12.4
2008-06-03 13:02:16 51°14.299 2°53.823 77.1 11 74 12
2008-06-03 13:03:16 51°14.355 2°54.137 75.1 13.3 72 11.7
2008-06-03 13:04:16 51°14.408 2°54.469 82.4 12.5 80 12.4
2008-06-03 13:05:16 51°14.426 2°54.798 98.4 12.2 96 13.1
2008-06-03 13:06:16 51°14.353 2°55.071 126.1 10.9 126 13.1
2008-06-03 13:07:17 51°14.239 2°55.281 134 9.1 136 -999